sensor_id;sensor_type;location;lat;lon;timestamp;pressure;altitude;pressure_sealevel;temperature;humidity
29907;BME280;16776;50.958;10.994;2023-05-17T00:00:13;98939.75;;;8.41;84.58
29907;BME280;16776;50.958;10.994;2023-05-17T00:02:40;98945.75;;;8.40;83.80
29907;BME280;16776;50.958;10.994;2023-05-17T00:05:07;98942.34;;;8.39;84.26
29907;BME280;16776;50.958;10.994;2023-05-17T00:07:35;98948.34;;;8.38;84.20
29907;BME280;16776;50.958;10.994;2023-05-17T00:10:06;98947.53;;;8.36;84.55
29907;BME280;16776;50.958;10.994;2023-05-17T00:12:33;98947.53;;;8.36;84.91
29907;BME280;16776;50.958;10.994;2023-05-17T00:15:00;98948.41;;;8.34;84.45
29907;BME280;16776;50.958;10.994;2023-05-17T00:17:27;98947.53;;;8.35;84.41
29907;BME280;16776;50.958;10.994;2023-05-17T00:19:53;98947.53;;;8.33;84.17
29907;BME280;16776;50.958;10.994;2023-05-17T00:22:19;98943.28;;;8.32;84.78
29907;BME280;16776;50.958;10.994;2023-05-17T00:24:46;98939.84;;;8.32;84.39
29907;BME280;16776;50.958;10.994;2023-05-17T00:27:14;98942.47;;;8.30;84.86
29907;BME280;16776;50.958;10.994;2023-05-17T00:29:40;98939.94;;;8.27;85.12
29907;BME280;16776;50.958;10.994;2023-05-17T00:32:09;98945.91;;;8.26;84.39
29907;BME280;16776;50.958;10.994;2023-05-17T00:34:35;98946.78;;;8.25;84.54
29907;BME280;16776;50.958;10.994;2023-05-17T00:37:02;98952.81;;;8.24;84.89
29907;BME280;16776;50.958;10.994;2023-05-17T00:39:28;98954.53;;;8.22;84.56
29907;BME280;16776;50.958;10.994;2023-05-17T00:41:54;98949.41;;;8.20;84.45
29907;BME280;16776;50.958;10.994;2023-05-17T00:44:22;98948.59;;;8.18;84.85
29907;BME280;16776;50.958;10.994;2023-05-17T00:46:49;98948.63;;;8.15;85.11
29907;BME280;16776;50.958;10.994;2023-05-17T00:49:15;98949.50;;;8.13;85.00
29907;BME280;16776;50.958;10.994;2023-05-17T00:51:42;98954.63;;;8.11;85.48
29907;BME280;16776;50.958;10.994;2023-05-17T00:54:09;98954.63;;;8.11;84.80
29907;BME280;16776;50.958;10.994;2023-05-17T00:56:36;98955.50;;;8.09;85.21
29907;BME280;16776;50.958;10.994;2023-05-17T00:59:03;98960.66;;;8.07;84.96
29907;BME280;16776;50.958;10.994;2023-05-17T01:01:31;98958.09;;;8.06;85.28
29907;BME280;16776;50.958;10.994;2023-05-17T01:03:58;98949.59;;;8.02;85.38
29907;BME280;16776;50.958;10.994;2023-05-17T01:06:25;98947.91;;;8.01;84.81
29907;BME280;16776;50.958;10.994;2023-05-17T01:08:54;98952.22;;;7.98;85.15
29907;BME280;16776;50.958;10.994;2023-05-17T01:11:23;98959.94;;;7.95;84.65
29907;BME280;16776;50.958;10.994;2023-05-17T01:13:57;98959.13;;;7.91;85.04
29907;BME280;16776;50.958;10.994;2023-05-17T01:16:28;98965.16;;;7.87;85.83
29907;BME280;16776;50.958;10.994;2023-05-17T01:18:59;98962.63;;;7.84;85.73
29907;BME280;16776;50.958;10.994;2023-05-17T01:21:34;98964.34;;;7.82;85.33
29907;BME280;16776;50.958;10.994;2023-05-17T01:24:05;98964.41;;;7.79;85.77
29907;BME280;16776;50.958;10.994;2023-05-17T01:26:38;98971.25;;;7.77;86.07
29907;BME280;16776;50.958;10.994;2023-05-17T01:29:05;98966.13;;;7.74;84.83
29907;BME280;16776;50.958;10.994;2023-05-17T01:31:33;98975.56;;;7.72;85.87
29907;BME280;16776;50.958;10.994;2023-05-17T01:34:00;98979.84;;;7.70;85.31
29907;BME280;16776;50.958;10.994;2023-05-17T01:36:29;98974.78;;;7.67;85.76
29907;BME280;16776;50.958;10.994;2023-05-17T01:38:55;98979.06;;;7.63;85.66
29907;BME280;16776;50.958;10.994;2023-05-17T01:41:25;98981.63;;;7.62;86.00
29907;BME280;16776;50.958;10.994;2023-05-17T01:43:55;98987.66;;;7.59;86.09
29907;BME280;16776;50.958;10.994;2023-05-17T01:46:25;98991.94;;;7.57;86.11
29907;BME280;16776;50.958;10.994;2023-05-17T01:48:55;98991.09;;;7.55;85.24
29907;BME280;16776;50.958;10.994;2023-05-17T01:51:26;98991.97;;;7.53;86.24
29907;BME280;16776;50.958;10.994;2023-05-17T01:53:54;98995.41;;;7.52;86.19
29907;BME280;16776;50.958;10.994;2023-05-17T01:56:25;98996.28;;;7.49;85.93
29907;BME280;16776;50.958;10.994;2023-05-17T01:58:55;98998.88;;;7.48;86.24
29907;BME280;16776;50.958;10.994;2023-05-17T02:01:23;98998.88;;;7.44;85.22
29907;BME280;16776;50.958;10.994;2023-05-17T02:03:52;99006.56;;;7.43;86.30
29907;BME280;16776;50.958;10.994;2023-05-17T02:06:19;98998.91;;;7.41;86.26
29907;BME280;16776;50.958;10.994;2023-05-17T02:08:45;99001.47;;;7.40;85.54
29907;BME280;16776;50.958;10.994;2023-05-17T02:11:11;99010.03;;;7.39;86.76
29907;BME280;16776;50.958;10.994;2023-05-17T02:13:38;98997.22;;;7.37;85.85
29907;BME280;16776;50.958;10.994;2023-05-17T02:16:05;99006.63;;;7.35;86.19
29907;BME280;16776;50.958;10.994;2023-05-17T02:18:32;99003.25;;;7.33;86.36
29907;BME280;16776;50.958;10.994;2023-05-17T02:20:59;99003.25;;;7.32;85.71
29907;BME280;16776;50.958;10.994;2023-05-17T02:23:25;99002.41;;;7.30;86.72
29907;BME280;16776;50.958;10.994;2023-05-17T02:25:52;99010.13;;;7.27;86.62
29907;BME280;16776;50.958;10.994;2023-05-17T02:28:18;99009.28;;;7.23;86.59
29907;BME280;16776;50.958;10.994;2023-05-17T02:30:45;99009.31;;;7.22;85.85
29907;BME280;16776;50.958;10.994;2023-05-17T02:33:12;99015.28;;;7.19;86.74
29907;BME280;16776;50.958;10.994;2023-05-17T02:35:39;99005.94;;;7.15;85.41
29907;BME280;16776;50.958;10.994;2023-05-17T02:38:11;99011.91;;;7.14;85.93
29907;BME280;16776;50.958;10.994;2023-05-17T02:40:39;99006.81;;;7.11;85.88
29907;BME280;16776;50.958;10.994;2023-05-17T02:43:06;99005.13;;;7.09;86.94
29907;BME280;16776;50.958;10.994;2023-05-17T02:45:32;99004.28;;;7.05;86.73
29907;BME280;16776;50.958;10.994;2023-05-17T02:47:59;99011.16;;;7.03;86.29
29907;BME280;16776;50.958;10.994;2023-05-17T02:50:27;99013.72;;;7.00;86.55
29907;BME280;16776;50.958;10.994;2023-05-17T02:52:53;99015.44;;;6.98;85.82
29907;BME280;16776;50.958;10.994;2023-05-17T02:55:19;99015.47;;;6.95;86.77
29907;BME280;16776;50.958;10.994;2023-05-17T02:57:46;99016.31;;;6.92;86.26
29907;BME280;16776;50.958;10.994;2023-05-17T03:00:13;99013.78;;;6.89;86.76
29907;BME280;16776;50.958;10.994;2023-05-17T03:02:41;99013.78;;;6.86;86.02
29907;BME280;16776;50.958;10.994;2023-05-17T03:05:07;99016.38;;;6.83;85.98
29907;BME280;16776;50.958;10.994;2023-05-17T03:07:35;99016.38;;;6.80;86.97
29907;BME280;16776;50.958;10.994;2023-05-17T03:10:02;99015.56;;;6.77;86.25
29907;BME280;16776;50.958;10.994;2023-05-17T03:12:28;99024.97;;;6.75;86.41
29907;BME280;16776;50.958;10.994;2023-05-17T03:14:54;99013.00;;;6.71;86.83
29907;BME280;16776;50.958;10.994;2023-05-17T03:17:21;99013.00;;;6.66;85.91
29907;BME280;16776;50.958;10.994;2023-05-17T03:19:47;99008.78;;;6.62;86.57
29907;BME280;16776;50.958;10.994;2023-05-17T03:22:13;99018.19;;;6.58;86.74
29907;BME280;16776;50.958;10.994;2023-05-17T03:24:41;99013.06;;;6.54;86.29
29907;BME280;16776;50.958;10.994;2023-05-17T03:27:08;99020.78;;;6.49;86.33
29907;BME280;16776;50.958;10.994;2023-05-17T03:29:34;99020.81;;;6.45;86.28
29907;BME280;16776;50.958;10.994;2023-05-17T03:32:00;99028.47;;;6.40;87.12
29907;BME280;16776;50.958;10.994;2023-05-17T03:34:27;99028.47;;;6.42;89.48
29907;BME280;16776;50.958;10.994;2023-05-17T03:36:53;99024.16;;;6.56;90.23
29907;BME280;16776;50.958;10.994;2023-05-17T03:39:19;99025.78;;;6.81;91.77
29907;BME280;16776;50.958;10.994;2023-05-17T03:41:50;99030.75;;;7.09;90.54
29907;BME280;16776;50.958;10.994;2023-05-17T03:44:17;99026.31;;;7.30;89.74
29907;BME280;16776;50.958;10.994;2023-05-17T03:46:46;99032.19;;;7.44;89.66
29907;BME280;16776;50.958;10.994;2023-05-17T03:49:12;99031.28;;;7.53;88.03
29907;BME280;16776;50.958;10.994;2023-05-17T03:51:41;99033.81;;;7.55;88.23
29907;BME280;16776;50.958;10.994;2023-05-17T03:54:08;99035.56;;;7.53;87.78
29907;BME280;16776;50.958;10.994;2023-05-17T03:56:34;99041.53;;;7.49;87.36
29907;BME280;16776;50.958;10.994;2023-05-17T03:59:02;99043.28;;;7.43;87.34
29907;BME280;16776;50.958;10.994;2023-05-17T04:01:28;99038.22;;;7.37;87.08
29907;BME280;16776;50.958;10.994;2023-05-17T04:03:55;99043.38;;;7.31;87.19
29907;BME280;16776;50.958;10.994;2023-05-17T04:06:21;99041.72;;;7.24;87.53
29907;BME280;16776;50.958;10.994;2023-05-17T04:08:47;99046.88;;;7.21;87.23
29907;BME280;16776;50.958;10.994;2023-05-17T04:11:14;99040.91;;;7.16;86.72
29907;BME280;16776;50.958;10.994;2023-05-17T04:13:43;99047.78;;;7.13;87.39
29907;BME280;16776;50.958;10.994;2023-05-17T04:16:11;99044.38;;;7.11;87.66
29907;BME280;16776;50.958;10.994;2023-05-17T04:18:37;99050.38;;;7.08;87.37
29907;BME280;16776;50.958;10.994;2023-05-17T04:21:04;99054.66;;;7.08;87.59
29907;BME280;16776;50.958;10.994;2023-05-17T04:23:30;99049.53;;;7.08;88.06
29907;BME280;16776;50.958;10.994;2023-05-17T04:25:57;99052.94;;;7.07;87.87
29907;BME280;16776;50.958;10.994;2023-05-17T04:28:24;99051.22;;;7.07;88.49
29907;BME280;16776;50.958;10.994;2023-05-17T04:30:51;99055.47;;;7.11;88.05
29907;BME280;16776;50.958;10.994;2023-05-17T04:33:20;99057.16;;;7.15;88.69
29907;BME280;16776;50.958;10.994;2023-05-17T04:35:46;99057.13;;;7.18;88.70
29907;BME280;16776;50.958;10.994;2023-05-17T04:38:13;99068.22;;;7.22;88.31
29907;BME280;16776;50.958;10.994;2023-05-17T04:40:39;99064.78;;;7.23;87.20
29907;BME280;16776;50.958;10.994;2023-05-17T04:43:08;99060.50;;;7.23;88.22
29907;BME280;16776;50.958;10.994;2023-05-17T04:45:34;99064.78;;;7.24;88.24
29907;BME280;16776;50.958;10.994;2023-05-17T04:48:01;99057.09;;;7.26;88.22
29907;BME280;16776;50.958;10.994;2023-05-17T04:50:29;99062.22;;;7.27;87.82
29907;BME280;16776;50.958;10.994;2023-05-17T04:52:56;99063.91;;;7.28;87.68
29907;BME280;16776;50.958;10.994;2023-05-17T04:55:25;99069.03;;;7.28;87.74
29907;BME280;16776;50.958;10.994;2023-05-17T04:57:51;99070.75;;;7.28;87.89
29907;BME280;16776;50.958;10.994;2023-05-17T05:00:20;99076.72;;;7.27;88.06
29907;BME280;16776;50.958;10.994;2023-05-17T05:02:47;99084.41;;;7.25;87.29
29907;BME280;16776;50.958;10.994;2023-05-17T05:05:14;99088.69;;;7.25;87.61
29907;BME280;16776;50.958;10.994;2023-05-17T05:07:47;99089.53;;;7.24;87.78
29907;BME280;16776;50.958;10.994;2023-05-17T05:10:14;99094.66;;;7.24;88.15
29907;BME280;16776;50.958;10.994;2023-05-17T05:12:41;99094.66;;;7.25;87.82
29907;BME280;16776;50.958;10.994;2023-05-17T05:15:07;99095.50;;;7.24;88.11
29907;BME280;16776;50.958;10.994;2023-05-17T05:17:36;99098.09;;;7.23;88.71
29907;BME280;16776;50.958;10.994;2023-05-17T05:20:03;99098.13;;;7.21;88.50
29907;BME280;16776;50.958;10.994;2023-05-17T05:22:30;99110.88;;;7.23;88.98
29907;BME280;16776;50.958;10.994;2023-05-17T05:24:57;99104.94;;;7.22;87.75
29907;BME280;16776;50.958;10.994;2023-05-17T05:27:24;99105.81;;;7.21;88.35
29907;BME280;16776;50.958;10.994;2023-05-17T05:29:52;99110.91;;;7.21;87.79
29907;BME280;16776;50.958;10.994;2023-05-17T05:32:21;99113.47;;;7.18;88.16
29907;BME280;16776;50.958;10.994;2023-05-17T05:34:48;99113.47;;;7.17;87.79
29907;BME280;16776;50.958;10.994;2023-05-17T05:37:14;99120.31;;;7.16;89.21
29907;BME280;16776;50.958;10.994;2023-05-17T05:39:41;99122.88;;;7.16;88.81
29907;BME280;16776;50.958;10.994;2023-05-17T05:42:08;99120.31;;;7.16;88.47
29907;BME280;16776;50.958;10.994;2023-05-17T05:44:35;99124.59;;;7.19;88.83
29907;BME280;16776;50.958;10.994;2023-05-17T05:47:01;99132.28;;;7.20;88.74
29907;BME280;16776;50.958;10.994;2023-05-17T05:49:27;99126.25;;;7.24;88.59
29907;BME280;16776;50.958;10.994;2023-05-17T05:51:54;99122.84;;;7.27;88.33
29907;BME280;16776;50.958;10.994;2023-05-17T05:54:20;99125.41;;;7.28;88.81
29907;BME280;16776;50.958;10.994;2023-05-17T05:56:47;99127.94;;;7.30;88.24
29907;BME280;16776;50.958;10.994;2023-05-17T05:59:16;99130.50;;;7.31;89.24
29907;BME280;16776;50.958;10.994;2023-05-17T06:01:46;99132.16;;;7.35;88.90
29907;BME280;16776;50.958;10.994;2023-05-17T06:04:12;99140.66;;;7.42;89.44
29907;BME280;16776;50.958;10.994;2023-05-17T06:06:39;99144.06;;;7.49;89.86
29907;BME280;16776;50.958;10.994;2023-05-17T06:09:08;99147.44;;;7.57;90.38
29907;BME280;16776;50.958;10.994;2023-05-17T06:11:36;99149.09;;;7.67;90.46
29907;BME280;16776;50.958;10.994;2023-05-17T06:14:02;99158.41;;;7.77;91.08
29907;BME280;16776;50.958;10.994;2023-05-17T06:16:30;99126.81;;;7.72;90.56
29907;BME280;16776;50.958;10.994;2023-05-17T06:18:57;99161.66;;;7.99;91.03
29907;BME280;16776;50.958;10.994;2023-05-17T06:21:23;99163.28;;;8.10;91.26
29907;BME280;16776;50.958;10.994;2023-05-17T06:23:51;99170.06;;;8.20;91.68
29907;BME280;16776;50.958;10.994;2023-05-17T06:26:17;99171.66;;;8.34;91.48
29907;BME280;16776;50.958;10.994;2023-05-17T06:28:43;99166.41;;;8.44;91.34
29907;BME280;16776;50.958;10.994;2023-05-17T06:31:10;99168.91;;;8.55;91.74
29907;BME280;16776;50.958;10.994;2023-05-17T06:33:39;99179.03;;;8.67;91.88
29907;BME280;16776;50.958;10.994;2023-05-17T06:36:06;99184.91;;;8.78;91.46
29907;BME280;16776;50.958;10.994;2023-05-17T06:38:32;99183.06;;;8.89;91.63
29907;BME280;16776;50.958;10.994;2023-05-17T06:40:59;99175.25;;;9.00;92.08
29907;BME280;16776;50.958;10.994;2023-05-17T06:43:25;99183.69;;;9.10;91.72
29907;BME280;16776;50.958;10.994;2023-05-17T06:45:52;99185.28;;;9.20;91.48
29907;BME280;16776;50.958;10.994;2023-05-17T06:48:18;99189.44;;;9.30;91.44
29907;BME280;16776;50.958;10.994;2023-05-17T06:50:46;99180.81;;;9.38;91.11
29907;BME280;16776;50.958;10.994;2023-05-17T06:53:12;99181.56;;;9.45;91.17
29907;BME280;16776;50.958;10.994;2023-05-17T06:55:39;99182.34;;;9.52;91.00
29907;BME280;16776;50.958;10.994;2023-05-17T06:58:05;99191.63;;;9.60;91.15
29907;BME280;16776;50.958;10.994;2023-05-17T07:00:32;99189.81;;;9.67;91.04
29907;BME280;16776;50.958;10.994;2023-05-17T07:02:58;99193.16;;;9.73;91.25
29907;BME280;16776;50.958;10.994;2023-05-17T07:05:26;99193.91;;;9.80;91.02
29907;BME280;16776;50.958;10.994;2023-05-17T07:07:56;99188.69;;;9.86;90.25
29907;BME280;16776;50.958;10.994;2023-05-17T07:10:25;99186.84;;;9.96;91.30
29907;BME280;16776;50.958;10.994;2023-05-17T07:12:52;99184.94;;;10.07;91.12
29907;BME280;16776;50.958;10.994;2023-05-17T07:15:18;99181.31;;;10.18;91.54
29907;BME280;16776;50.958;10.994;2023-05-17T07:17:46;99178.59;;;10.29;91.39
29907;BME280;16776;50.958;10.994;2023-05-17T07:20:13;99189.53;;;10.42;91.64
29907;BME280;16776;50.958;10.994;2023-05-17T07:22:39;99183.28;;;10.56;91.98
29907;BME280;16776;50.958;10.994;2023-05-17T07:25:08;99183.84;;;10.74;92.17
29907;BME280;16776;50.958;10.994;2023-05-17T07:27:39;99179.13;;;10.94;92.07
29907;BME280;16776;50.958;10.994;2023-05-17T07:30:06;99182.16;;;11.14;92.26
29907;BME280;16776;50.958;10.994;2023-05-17T07:32:33;99192.09;;;11.32;92.14
29907;BME280;16776;50.958;10.994;2023-05-17T07:34:59;99191.78;;;11.48;92.06
29907;BME280;16776;50.958;10.994;2023-05-17T07:37:26;99188.09;;;11.59;91.25
29907;BME280;16776;50.958;10.994;2023-05-17T07:39:53;99192.25;;;11.66;90.99
29907;BME280;16776;50.958;10.994;2023-05-17T07:42:20;99187.81;;;11.73;90.68
29907;BME280;16776;50.958;10.994;2023-05-17T07:44:47;99187.75;;;11.76;90.44
29907;BME280;16776;50.958;10.994;2023-05-17T07:47:14;99185.97;;;11.78;90.82
29907;BME280;16776;50.958;10.994;2023-05-17T07:49:40;99182.53;;;11.77;89.94
29907;BME280;16776;50.958;10.994;2023-05-17T07:52:06;99192.09;;;11.74;89.81
29907;BME280;16776;50.958;10.994;2023-05-17T07:54:33;99187.00;;;11.71;89.55
29907;BME280;16776;50.958;10.994;2023-05-17T07:56:59;99190.53;;;11.67;89.65
29907;BME280;16776;50.958;10.994;2023-05-17T07:59:27;99196.66;;;11.63;89.43
29907;BME280;16776;50.958;10.994;2023-05-17T08:01:53;99195.81;;;11.59;89.95
29907;BME280;16776;50.958;10.994;2023-05-17T08:04:20;99201.91;;;11.57;89.74
29907;BME280;16776;50.958;10.994;2023-05-17T08:06:48;99207.06;;;11.57;89.81
29907;BME280;16776;50.958;10.994;2023-05-17T08:09:14;99197.56;;;11.59;90.09
29907;BME280;16776;50.958;10.994;2023-05-17T08:11:41;99200.09;;;11.63;90.38
29907;BME280;16776;50.958;10.994;2023-05-17T08:14:10;99197.25;;;11.74;91.16
29907;BME280;16776;50.958;10.994;2023-05-17T08:16:38;99202.03;;;11.91;90.91
29907;BME280;16776;50.958;10.994;2023-05-17T08:19:04;99195.53;;;12.11;91.37
29907;BME280;16776;50.958;10.994;2023-05-17T08:21:31;99189.75;;;12.36;91.74
29907;BME280;16776;50.958;10.994;2023-05-17T08:23:57;99195.09;;;12.63;92.24
29907;BME280;16776;50.958;10.994;2023-05-17T08:26:24;99183.22;;;12.89;91.67
29907;BME280;16776;50.958;10.994;2023-05-17T08:28:51;99184.38;;;13.10;91.60
29907;BME280;16776;50.958;10.994;2023-05-17T08:31:17;99190.78;;;13.26;90.99
29907;BME280;16776;50.958;10.994;2023-05-17T08:33:45;99191.44;;;13.34;90.48
29907;BME280;16776;50.958;10.994;2023-05-17T08:36:11;99181.78;;;13.39;90.19
29907;BME280;16776;50.958;10.994;2023-05-17T08:38:38;99186.06;;;13.40;89.87
29907;BME280;16776;50.958;10.994;2023-05-17T08:41:05;99187.81;;;13.39;89.54
29907;BME280;16776;50.958;10.994;2023-05-17T08:43:31;99187.00;;;13.37;89.00
29907;BME280;16776;50.958;10.994;2023-05-17T08:45:58;99195.75;;;13.33;89.19
29907;BME280;16776;50.958;10.994;2023-05-17T08:48:24;99193.28;;;13.30;89.10
29907;BME280;16776;50.958;10.994;2023-05-17T08:50:53;99186.47;;;13.26;88.69
29907;BME280;16776;50.958;10.994;2023-05-17T08:53:19;99198.66;;;13.23;88.83
29907;BME280;16776;50.958;10.994;2023-05-17T08:55:46;99203.03;;;13.21;88.32
29907;BME280;16776;50.958;10.994;2023-05-17T08:58:13;99198.72;;;13.20;88.70
29907;BME280;16776;50.958;10.994;2023-05-17T09:00:40;99206.44;;;13.21;89.03
29907;BME280;16776;50.958;10.994;2023-05-17T09:03:07;99206.50;;;13.20;88.49
29907;BME280;16776;50.958;10.994;2023-05-17T09:05:34;99205.72;;;13.18;88.40
29907;BME280;16776;50.958;10.994;2023-05-17T09:08:03;99210.13;;;13.13;88.36
29907;BME280;16776;50.958;10.994;2023-05-17T09:10:30;99203.38;;;13.09;88.10
29907;BME280;16776;50.958;10.994;2023-05-17T09:12:56;99211.19;;;13.06;88.61
29907;BME280;16776;50.958;10.994;2023-05-17T09:15:23;99209.44;;;13.06;88.03
29907;BME280;16776;50.958;10.994;2023-05-17T09:17:51;99215.47;;;13.07;88.47
29907;BME280;16776;50.958;10.994;2023-05-17T09:20:21;99214.56;;;13.09;88.55
29907;BME280;16776;50.958;10.994;2023-05-17T09:22:48;99220.47;;;13.13;88.40
29907;BME280;16776;50.958;10.994;2023-05-17T09:25:19;99219.56;;;13.15;88.23
29907;BME280;16776;50.958;10.994;2023-05-17T09:27:45;99220.41;;;13.16;88.12
29907;BME280;16776;50.958;10.994;2023-05-17T09:30:12;99219.53;;;13.17;87.97
29907;BME280;16776;50.958;10.994;2023-05-17T09:32:43;99221.34;;;13.13;87.99
29907;BME280;16776;50.958;10.994;2023-05-17T09:35:10;99223.16;;;13.10;87.77
29907;BME280;16776;50.958;10.994;2023-05-17T09:37:36;99236.22;;;13.05;87.52
29907;BME280;16776;50.958;10.994;2023-05-17T09:40:03;99238.03;;;13.01;87.37
29907;BME280;16776;50.958;10.994;2023-05-17T09:42:34;99237.28;;;12.98;87.76
29907;BME280;16776;50.958;10.994;2023-05-17T09:45:05;99228.72;;;12.96;87.70
29907;BME280;16776;50.958;10.994;2023-05-17T09:47:31;99226.16;;;12.94;87.76
29907;BME280;16776;50.958;10.994;2023-05-17T09:50:01;99221.88;;;12.93;87.37
29907;BME280;16776;50.958;10.994;2023-05-17T09:52:28;99221.00;;;12.93;87.28
29907;BME280;16776;50.958;10.994;2023-05-17T09:54:56;99228.84;;;12.91;87.04
29907;BME280;16776;50.958;10.994;2023-05-17T09:57:23;99229.69;;;12.92;87.33
29907;BME280;16776;50.958;10.994;2023-05-17T09:59:52;99225.31;;;12.94;87.29
29907;BME280;16776;50.958;10.994;2023-05-17T10:02:21;99240.63;;;13.01;87.97
29907;BME280;16776;50.958;10.994;2023-05-17T10:04:48;99230.88;;;13.11;88.06
29907;BME280;16776;50.958;10.994;2023-05-17T10:07:15;99238.41;;;13.19;87.79
29907;BME280;16776;50.958;10.994;2023-05-17T10:09:43;99232.28;;;13.23;87.11
29907;BME280;16776;50.958;10.994;2023-05-17T10:12:10;99237.34;;;13.26;86.96
29907;BME280;16776;50.958;10.994;2023-05-17T10:14:40;99240.75;;;13.28;87.01
29907;BME280;16776;50.958;10.994;2023-05-17T10:17:13;99238.97;;;13.30;87.34
29907;BME280;16776;50.958;10.994;2023-05-17T10:19:40;99247.59;;;13.30;87.39
29907;BME280;16776;50.958;10.994;2023-05-17T10:22:09;99244.09;;;13.31;87.44
29907;BME280;16776;50.958;10.994;2023-05-17T10:24:36;99255.25;;;13.33;87.20
29907;BME280;16776;50.958;10.994;2023-05-17T10:27:03;99248.31;;;13.35;87.37
29907;BME280;16776;50.958;10.994;2023-05-17T10:29:33;99252.53;;;13.38;87.27
29907;BME280;16776;50.958;10.994;2023-05-17T10:32:02;99249.03;;;13.40;87.41
29907;BME280;16776;50.958;10.994;2023-05-17T10:34:30;99247.91;;;13.49;87.66
29907;BME280;16776;50.958;10.994;2023-05-17T10:36:56;99254.53;;;13.59;87.70
29907;BME280;16776;50.958;10.994;2023-05-17T10:39:23;99256.88;;;13.68;87.61
29907;BME280;16776;50.958;10.994;2023-05-17T10:41:50;99253.16;;;13.77;87.83
29907;BME280;16776;50.958;10.994;2023-05-17T10:44:20;99250.31;;;13.86;87.73
29907;BME280;16776;50.958;10.994;2023-05-17T10:46:50;99251.81;;;13.93;87.14
29907;BME280;16776;50.958;10.994;2023-05-17T10:49:17;99251.59;;;14.01;87.28
29907;BME280;16776;50.958;10.994;2023-05-17T10:51:45;99254.75;;;14.09;87.40
29907;BME280;16776;50.958;10.994;2023-05-17T10:54:12;99254.53;;;14.16;87.26
29907;BME280;16776;50.958;10.994;2023-05-17T10:56:46;99253.50;;;14.22;87.04
29907;BME280;16776;50.958;10.994;2023-05-17T10:59:16;99248.97;;;14.29;87.43
29907;BME280;16776;50.958;10.994;2023-05-17T11:01:50;99246.13;;;14.36;87.46
29907;BME280;16776;50.958;10.994;2023-05-17T11:04:19;99244.81;;;14.51;88.03
29907;BME280;16776;50.958;10.994;2023-05-17T11:06:47;99237.31;;;14.68;88.27
29907;BME280;16776;50.958;10.994;2023-05-17T11:09:14;99234.91;;;14.88;88.19
29907;BME280;16776;50.958;10.994;2023-05-17T11:14:22;99235.56;;;15.18;87.48
29907;BME280;16776;50.958;10.994;2023-05-17T11:16:49;99240.31;;;15.30;87.23
29907;BME280;16776;50.958;10.994;2023-05-17T11:19:21;99241.75;;;15.39;87.07
29907;BME280;16776;50.958;10.994;2023-05-17T11:21:49;99254.56;;;15.44;87.26
29907;BME280;16776;50.958;10.994;2023-05-17T11:24:24;99251.03;;;15.46;86.57
29907;BME280;16776;50.958;10.994;2023-05-17T11:26:51;99241.59;;;15.44;86.39
29907;BME280;16776;50.958;10.994;2023-05-17T11:29:19;99247.66;;;15.42;86.52
29907;BME280;16776;50.958;10.994;2023-05-17T11:31:49;99240.00;;;15.39;86.43
29907;BME280;16776;50.958;10.994;2023-05-17T11:34:16;99250.28;;;15.42;86.44
29907;BME280;16776;50.958;10.994;2023-05-17T11:36:51;99240.50;;;15.49;86.89
29907;BME280;16776;50.958;10.994;2023-05-17T11:39:18;99240.97;;;15.60;86.99
29907;BME280;16776;50.958;10.994;2023-05-17T11:41:48;99234.34;;;15.75;87.49
29907;BME280;16776;50.958;10.994;2023-05-17T11:44:14;99236.34;;;15.90;87.18
29907;BME280;16776;50.958;10.994;2023-05-17T11:46:43;99237.44;;;16.06;86.98
29907;BME280;16776;50.958;10.994;2023-05-17T11:49:09;99240.50;;;16.17;86.63
29907;BME280;16776;50.958;10.994;2023-05-17T11:51:36;99235.00;;;16.25;86.92
29907;BME280;16776;50.958;10.994;2023-05-17T11:54:07;99233.84;;;16.32;87.01
29907;BME280;16776;50.958;10.994;2023-05-17T11:56:34;99236.06;;;16.41;86.54
29907;BME280;16776;50.958;10.994;2023-05-17T11:59:01;99231.47;;;16.48;86.19
29907;BME280;16776;50.958;10.994;2023-05-17T12:01:28;99239.00;;;16.54;86.19
29907;BME280;16776;50.958;10.994;2023-05-17T12:03:54;99229.25;;;16.59;86.33
29907;BME280;16776;50.958;10.994;2023-05-17T12:06:21;99236.16;;;16.60;86.02
29907;BME280;16776;50.958;10.994;2023-05-17T12:08:49;99236.94;;;16.62;86.16
29907;BME280;16776;50.958;10.994;2023-05-17T12:11:17;99235.09;;;16.64;86.04
29907;BME280;16776;50.958;10.994;2023-05-17T12:13:43;99229.75;;;16.69;86.15
29907;BME280;16776;50.958;10.994;2023-05-17T12:16:13;99232.84;;;16.77;86.36
29907;BME280;16776;50.958;10.994;2023-05-17T12:18:40;99229.91;;;16.84;86.29
29907;BME280;16776;50.958;10.994;2023-05-17T12:21:07;99228.69;;;16.93;86.20
29907;BME280;16776;50.958;10.994;2023-05-17T12:23:35;99230.09;;;17.02;85.85
29907;BME280;16776;50.958;10.994;2023-05-17T12:26:02;99230.66;;;17.08;85.82
29907;BME280;16776;50.958;10.994;2023-05-17T12:28:30;99221.88;;;17.11;85.52
29907;BME280;16776;50.958;10.994;2023-05-17T12:30:58;99220.94;;;17.12;85.70
29907;BME280;16776;50.958;10.994;2023-05-17T12:33:27;99221.75;;;17.14;85.58
29907;BME280;16776;50.958;10.994;2023-05-17T12:35:54;99229.41;;;17.17;85.49
29907;BME280;16776;50.958;10.994;2023-05-17T12:38:21;99227.66;;;17.17;85.37
29907;BME280;16776;50.958;10.994;2023-05-17T12:40:48;99236.44;;;17.15;84.87
29907;BME280;16776;50.958;10.994;2023-05-17T12:43:14;99226.16;;;17.12;85.12
29907;BME280;16776;50.958;10.994;2023-05-17T12:45:43;99221.88;;;17.11;85.31
29907;BME280;16776;50.958;10.994;2023-05-17T12:48:12;99215.88;;;17.09;84.81
29907;BME280;16776;50.958;10.994;2023-05-17T12:50:40;99216.66;;;17.11;84.90
29907;BME280;16776;50.958;10.994;2023-05-17T12:53:09;99221.81;;;17.12;84.81
29907;BME280;16776;50.958;10.994;2023-05-17T12:55:38;99212.19;;;17.14;84.83
29907;BME280;16776;50.958;10.994;2023-05-17T12:58:04;99215.63;;;17.15;84.51